Aviation Digital Data Service (ADDS)

Output produced by METARs form (2011 UTC 31 January 2023)
found at http://www.aviationweather.gov/metar/data/
 
KAHN 311951Z 32003KT 10SM BKN038 18/14 A3010 RMK AO2 SLP190 T01830144
KAHN 311924Z 31006KT 10SM FEW016 SCT021 OVC032 17/14 A3011 RMK AO2 T01720144
KAHN 311739Z 3118/0118 25005KT P6SM OVC005 
     FM312300 26006KT P6SM BKN008 OVC012 
     FM010500 28006KT 4SM BR VCSH OVC005 
     PROB30 0106/0110 2SM -SHRA BR OVC004 
     FM011000 28006KT 4SM BR OVC006